Washington, NJ

3:55 PM EDT on September 04, 2015 (GMT -0400)
Bryans Road near Musconetcong River | | Change Station
CLOSE
Current Station
Personal Weather Station
Location: Washington Township, NJ
Elevation: 396 ft
Nearby Weather Stations

Elev 396 ft 40.71 °N, 74.98 °W | Updated 13 minutes ago

Mostly Cloudy
Mostly Cloudy
84.1 °F
Feels Like 90 °F
N
1.0
Wind Variable Wind from ENE
Gusts 8.0 mph

Today
High -- | Low -- °F
--% Chance of Precip.
Yesterday
High -- | Low -- °F
Precip. -- in
6:29 AM 7:27 PM
Waning Gibbous, 56% visible
Pressure 30.07 in
Visibility 6.0 miles
Clouds Mostly Cloudy 3300 ft
Mostly Cloudy 5000 ft
Heat Index 90 °F
Dew Point 72 °F
Humidity 67%
Rainfall 0.00 in
Snow Depth Not available.
UV 3 out of 12
Pollen 9.00 out of 12
Air Quality Not available.
Flu Activity Not available.
METAR KSMQ 041953Z AUTO 08006KT 6SM HZ BKN033 BKN050 28/21 A3008 RMK AO2 SLP183 T02780206
Pressure 30.07 in
Visibility 6.0 miles
Clouds Mostly Cloudy 3300 ft
Mostly Cloudy 5000 ft
Heat Index 90 °F
Dew Point 72 °F
Humidity 67%
Rainfall 0.00 in
Snow Depth Not available.
UV 3 out of 12
Pollen 9.00 out of 12
Air Quality Not available.
Flu Activity Not available.
METAR KSMQ 041953Z AUTO 08006KT 6SM HZ BKN033 BKN050 28/21 A3008 RMK AO2 SLP183 T02780206

10-Day Weather Forecast

×

Almanac

Astronomy

Sep. 04, 2015 Rise Set
Actual Time
Civil Twilight
Nautical Twilight
Astronomical Twilight
Moon
Length of Visible Light
Length of Day
Tomorrow will be .
, % of the Moon is Illuminated

Today's Extremes

State Highs State Lows

Community

WunderPhotos

Upload Photos

1,852,272 photos uploaded!

WunderBlogs® & News

Nearby

Air Quality

  Air Quality AQ Index Pollutant
Not available.

Snow Depth

Station Depth Elevation

Earthquake Activity

City Distance Mag. Time & Date
Minimum magnitude displayed is 2.5.

Coastal Water Temperatures

Place Temperature

Stations

Nearby Weather Stations

Station Location Temp. Windchill Dew Point Humidity Wind Precip. Elev Updated Type